Time;durP1;ratioP1;P1;durP2;ratioP2;P2;SDS_P1;SDS_P2;PMS_P1;PMS_P2;Temp;Humidity;BMP_temperature;BMP_pressure;BME280_temperature;BME280_humidity;BME280_pressure;Samples;Min_cycle;Max_cycle;Signal;HPM_P1;HPM_P2
2022/04/28 00:01:52;;;;;;;9.40;5.03;;;6.70;93.10;;;;;;5052161;28;20159;-47
2022/04/28 00:04:18;;;;;;;8.23;4.40;;;6.70;93.40;;;;;;5070145;28;20036;-51
2022/04/28 00:06:44;;;;;;;11.47;4.77;;;6.70;93.50;;;;;;5060357;28;20290;-49
2022/04/28 00:09:10;;;;;;;10.38;5.47;;;6.70;93.70;;;;;;5058208;28;20672;-49
2022/04/28 00:11:35;;;;;;;10.00;5.60;;;6.70;93.70;;;;;;5045802;28;20131;-47
2022/04/28 00:14:01;;;;;;;10.87;7.07;;;6.60;93.80;;;;;;5047457;28;20048;-47
2022/04/28 00:16:27;;;;;;;13.80;5.83;;;6.60;94.10;;;;;;5048472;28;20490;-47
2022/04/28 00:18:52;;;;;;;7.70;5.68;;;6.60;94.10;;;;;;5050595;28;20033;-47
2022/04/28 00:21:18;;;;;;;18.25;6.40;;;6.60;94.40;;;;;;5049097;28;20052;-49
2022/04/28 00:23:44;;;;;;;10.63;5.30;;;6.60;94.50;;;;;;5054989;28;20044;-48
2022/04/28 00:26:10;;;;;;;8.03;4.33;;;6.60;94.20;;;;;;5050432;28;20044;-47
2022/04/28 00:28:36;;;;;;;8.48;5.45;;;6.50;93.60;;;;;;5050386;28;20045;-47
2022/04/28 00:31:01;;;;;;;8.03;5.27;;;6.40;93.60;;;;;;5049410;28;20048;-47
2022/04/28 00:33:27;;;;;;;9.60;4.77;;;6.30;93.10;;;;;;5050231;28;20494;-47
2022/04/28 00:35:54;;;;;;;8.88;5.95;;;6.20;93.20;;;;;;5050076;28;20032;-47
2022/04/28 00:38:19;;;;;;;10.82;4.80;;;6.10;93.90;;;;;;5048816;28;20087;-49
2022/04/28 00:40:45;;;;;;;12.97;4.67;;;6.10;94.10;;;;;;5051155;28;20073;-47
2022/04/28 00:43:19;;;;;;;7.53;3.83;;;6.10;94.00;;;;;;5058991;28;20082;-47
2022/04/28 00:45:48;;;;;;;4.82;3.92;;;6.10;93.80;;;;;;5050124;28;20033;-47
2022/04/28 00:51:02;;;;;;;6.35;4.50;;;6.00;93.30;;;;;;5052024;28;20052;-48
2022/04/28 00:53:34;;;;;;;8.45;5.25;;;6.00;93.50;;;;;;5054651;28;20044;-47
2022/04/28 00:56:02;;;;;;;8.57;4.70;;;5.90;93.60;;;;;;5054105;28;20406;-47
2022/04/28 00:58:27;;;;;;;12.50;6.15;;;5.90;93.80;;;;;;5053252;28;20037;-49
2022/04/28 01:00:53;;;;;;;10.37;5.93;;;5.80;93.70;;;;;;5055652;28;20111;-47
2022/04/28 01:03:20;;;;;;;8.82;5.95;;;5.80;93.90;;;;;;5066162;28;20811;-47
2022/04/28 01:05:46;;;;;;;;;;;5.70;94.10;;;;;;5071736;28;20036;-47
2022/04/28 01:08:12;;;;;;;15.30;6.22;;;5.70;94.30;;;;;;5034660;28;19995;-48
2022/04/28 01:10:37;;;;;;;7.10;5.20;;;5.70;94.10;;;;;;5052942;28;20033;-47
2022/04/28 01:13:04;;;;;;;8.13;5.50;;;5.70;94.30;;;;;;5056180;28;20052;-48
2022/04/28 01:15:29;;;;;;;11.32;7.78;;;5.70;94.50;;;;;;5052130;28;20406;-47
2022/04/28 01:17:55;;;;;;;10.47;5.47;;;5.70;94.60;;;;;;5052146;28;20037;-47
2022/04/28 01:20:20;;;;;;;10.33;5.30;;;5.60;94.50;;;;;;5065461;28;20032;-47
2022/04/28 01:22:46;;;;;;;12.30;6.10;;;5.60;94.40;;;;;;5052513;28;20029;-48
2022/04/28 01:25:12;;;;;;;7.80;5.90;;;5.60;94.30;;;;;;5056397;28;20530;-49
2022/04/28 01:27:38;;;;;;;11.40;6.18;;;5.50;94.20;;;;;;5054633;28;20040;-47
2022/04/28 01:30:12;;;;;;;6.55;5.05;;;5.50;94.70;;;;;;5062807;28;20040;-47
2022/04/28 01:32:37;;;;;;;9.00;5.30;;;5.50;94.90;;;;;;5053977;28;20052;-47
2022/04/28 01:35:03;;;;;;;7.73;5.47;;;5.50;94.80;;;;;;5064477;28;20037;-47
2022/04/28 01:37:29;;;;;;;16.45;5.03;;;5.50;94.60;;;;;;5058945;28;20531;-47
2022/04/28 01:39:56;;;;;;;9.77;5.67;;;5.50;94.50;;;;;;5053757;28;20033;-46
2022/04/28 01:42:23;;;;;;;10.25;5.30;;;5.50;94.30;;;;;;5052669;28;20041;-47
2022/04/28 01:44:51;;;;;;;8.15;5.22;;;5.40;94.10;;;;;;5060479;28;20450;-47
2022/04/28 01:47:17;;;;;;;8.57;5.45;;;5.40;94.10;;;;;;5070794;28;20067;-47
2022/04/28 01:49:44;;;;;;;6.78;4.78;;;5.40;94.10;;;;;;5072322;28;20037;-47
2022/04/28 01:55:00;;;;;;;8.75;5.25;;;5.30;94.20;;;;;;5051848;28;20131;-47
2022/04/28 01:57:29;;;;;;;9.40;6.70;;;5.20;94.40;;;;;;5065081;28;20453;-47
2022/04/28 01:59:56;;;;;;;9.07;7.03;;;5.20;94.60;;;;;;5072420;28;20111;-47
2022/04/28 02:02:22;;;;;;;10.40;7.55;;;5.20;94.90;;;;;;5056876;28;20044;-48
2022/04/28 02:04:47;;;;;;;15.55;7.47;;;5.30;94.90;;;;;;5083947;28;20036;-47
2022/04/28 02:07:13;;;;;;;10.97;6.87;;;5.20;95.00;;;;;;5064793;28;20087;-48
2022/04/28 02:09:43;;;;;;;9.55;6.43;;;5.20;95.00;;;;;;5047068;28;20033;-47
2022/04/28 02:12:10;;;;;;;10.52;5.78;;;5.20;95.00;;;;;;5051474;28;20075;-47
2022/04/28 02:14:36;;;;;;;8.13;5.72;;;5.10;94.70;;;;;;5055731;28;20471;-47
2022/04/28 02:17:04;;;;;;;8.35;5.80;;;5.00;94.20;;;;;;5059560;28;20045;-47
2022/04/28 02:19:30;;;;;;;9.60;6.10;;;4.90;94.30;;;;;;5051850;28;20070;-47
2022/04/28 02:21:56;;;;;;;8.43;6.05;;;4.80;94.10;;;;;;5051879;28;20482;-47
2022/04/28 02:24:22;;;;;;;11.80;5.90;;;4.70;94.70;;;;;;5064718;28;20056;-47
2022/04/28 02:26:47;;;;;;;10.40;6.17;;;4.70;95.00;;;;;;5053219;28;20044;-47
2022/04/28 02:29:13;;;;;;;7.73;5.77;;;4.70;95.10;;;;;;5056986;28;20033;-47
2022/04/28 02:31:39;;;;;;;8.70;5.23;;;4.60;95.00;;;;;;5051200;28;20291;-47
2022/04/28 02:34:04;;;;;;;13.13;6.87;;;4.60;95.10;;;;;;5060670;28;20033;-47
2022/04/28 02:36:30;;;;;;;8.23;6.90;;;4.50;95.30;;;;;;5054817;28;20490;-47
2022/04/28 02:38:55;;;;;;;10.03;6.60;;;4.50;95.10;;;;;;5051896;28;20036;-48
2022/04/28 02:41:21;;;;;;;12.23;6.47;;;4.50;95.60;;;;;;5050855;28;20040;-47
2022/04/28 02:43:48;;;;;;;7.17;5.70;;;4.50;95.40;;;;;;5053777;28;20130;-47
2022/04/28 02:46:14;;;;;;;5.47;4.63;;;4.40;95.30;;;;;;5050624;28;20060;-46
2022/04/28 02:48:40;;;;;;;9.02;5.43;;;4.40;96.00;;;;;;5060966;28;20478;-47
2022/04/28 02:51:06;;;;;;;7.35;5.72;;;4.50;96.40;;;;;;5046246;28;20037;-47
2022/04/28 02:53:32;;;;;;;10.75;6.07;;;4.50;96.20;;;;;;5062853;28;20047;-46
2022/04/28 02:55:57;;;;;;;9.48;5.57;;;4.40;96.40;;;;;;5051277;28;20037;-47
2022/04/28 02:58:23;;;;;;;13.10;6.60;;;4.40;96.60;;;;;;5082935;28;20049;-47
2022/04/28 03:00:48;;;;;;;8.07;6.43;;;4.40;96.70;;;;;;5050931;28;20424;-48
2022/04/28 03:03:14;;;;;;;9.57;7.50;;;4.40;96.70;;;;;;5036386;28;20079;-47
2022/04/28 03:11:09;;;;;;;10.25;6.97;;;4.30;96.50;;;;;;5039105;28;20041;-47
2022/04/28 03:13:35;;;;;;;13.57;7.70;;;4.20;95.90;;;;;;5058383;28;20489;-46
2022/04/28 03:16:01;;;;;;;10.68;7.25;;;4.20;96.40;;;;;;5059505;28;20530;-47
2022/04/28 03:18:27;;;;;;;8.10;6.70;;;4.20;96.90;;;;;;5055510;28;20040;-47
2022/04/28 03:20:53;;;;;;;9.60;7.45;;;4.20;96.70;;;;;;5033211;28;20048;-47
2022/04/28 03:23:19;;;;;;;10.93;7.73;;;4.10;96.70;;;;;;5049643;28;20410;-47
2022/04/28 03:25:44;;;;;;;13.03;7.53;;;4.10;96.70;;;;;;5050536;28;20367;-47
2022/04/28 03:28:10;;;;;;;6.47;5.70;;;4.10;96.60;;;;;;5065841;28;20037;-47
2022/04/28 03:30:36;;;;;;;9.20;6.60;;;4.10;96.70;;;;;;5051411;28;20832;-47
2022/04/28 03:33:01;;;;;;;13.53;7.50;;;4.00;96.50;;;;;;5049782;28;20064;-47
2022/04/28 03:35:27;;;;;;;12.63;8.30;;;4.00;96.80;;;;;;5064903;28;20366;-47
2022/04/28 03:37:52;;;;;;;14.17;8.50;;;4.00;96.70;;;;;;5068590;28;20072;-47
2022/04/28 03:40:18;;;;;;;12.17;7.90;;;4.00;96.90;;;;;;5082404;28;20442;-48
2022/04/28 03:42:44;;;;;;;11.93;8.05;;;3.90;96.50;;;;;;5050249;28;20037;-49
2022/04/28 03:45:10;;;;;;;16.40;9.57;;;3.90;97.00;;;;;;5068961;28;20090;-47
2022/04/28 03:47:36;;;;;;;10.57;7.78;;;3.90;97.10;;;;;;5070003;28;20059;-47
2022/04/28 03:50:04;;;;;;;11.05;8.48;;;3.90;97.20;;;;;;5053586;28;20534;-48
2022/04/28 03:52:29;;;;;;;11.77;7.85;;;3.90;97.00;;;;;;5049764;28;20067;-46
2022/04/28 03:54:55;;;;;;;13.40;7.87;;;3.90;97.50;;;;;;5065736;28;20040;-47
2022/04/28 03:57:20;;;;;;;16.70;7.53;;;3.90;97.50;;;;;;5069915;28;20553;-47
2022/04/28 03:59:46;;;;;;;8.13;6.43;;;3.90;97.70;;;;;;5068725;28;20036;-47
2022/04/28 04:02:12;;;;;;;10.73;7.32;;;3.90;97.90;;;;;;5068287;28;20033;-46
2022/04/28 04:04:38;;;;;;;9.80;7.00;;;3.90;97.90;;;;;;5069079;28;20041;-47
2022/04/28 04:07:03;;;;;;;9.17;6.80;;;4.00;97.90;;;;;;5054371;28;20041;-48
2022/04/28 04:09:32;;;;;;;8.07;5.82;;;4.00;98.00;;;;;;5049409;28;20051;-47
2022/04/28 04:11:58;;;;;;;7.07;6.35;;;3.90;97.90;;;;;;5049920;28;20490;-47
2022/04/28 04:14:23;;;;;;;12.03;8.03;;;3.90;97.70;;;;;;5049565;28;20189;-47
2022/04/28 04:16:49;;;;;;;12.47;7.67;;;3.90;97.50;;;;;;5055100;28;20040;-47
2022/04/28 04:19:14;;;;;;;6.43;5.67;;;3.90;97.40;;;;;;5054574;28;20036;-47
2022/04/28 04:21:40;;;;;;;12.17;8.10;;;3.80;97.50;;;;;;5056453;28;20043;-47
2022/04/28 04:24:06;;;;;;;9.37;6.37;;;3.80;97.70;;;;;;5063914;28;20025;-47
2022/04/28 04:26:32;;;;;;;12.75;7.25;;;3.70;97.80;;;;;;5048658;28;20041;-47
2022/04/28 04:28:58;;;;;;;8.15;6.82;;;3.80;97.90;;;;;;5056364;28;20406;-47
2022/04/28 04:34:08;;;;;;;13.65;8.77;;;3.70;98.00;;;;;;5067276;28;20036;-47
2022/04/28 04:36:34;;;;;;;10.63;7.53;;;3.70;98.20;;;;;;5053849;28;20048;-47
2022/04/28 04:39:00;;;;;;;13.38;8.20;;;3.60;98.10;;;;;;5052990;28;20118;-48
2022/04/28 04:41:25;;;;;;;17.48;11.45;;;3.60;98.40;;;;;;5056556;28;20087;-47
2022/04/28 04:43:51;;;;;;;8.40;6.77;;;3.60;98.60;;;;;;5058361;28;20055;-47
2022/04/28 04:46:17;;;;;;;11.30;7.07;;;3.60;98.70;;;;;;5058709;28;20041;-47
2022/04/28 04:48:42;;;;;;;11.63;7.28;;;3.60;98.80;;;;;;5052808;28;20047;-47
2022/04/28 04:51:08;;;;;;;12.60;8.60;;;3.60;98.80;;;;;;5054825;28;20492;-48
2022/04/28 04:53:34;;;;;;;18.07;9.83;;;3.50;98.90;;;;;;5054723;28;20513;-47
2022/04/28 04:55:59;;;;;;;16.50;9.73;;;3.50;99.10;;;;;;5059406;28;20036;-46
2022/04/28 04:58:26;;;;;;;13.67;9.40;;;3.50;99.40;;;;;;5052656;28;20711;-47
2022/04/28 05:00:52;;;;;;;;;;;3.50;99.70;;;;;;5066921;28;20076;-47
2022/04/28 05:03:18;;;;;;;14.45;10.45;;;3.60;99.90;;;;;;5059188;28;19927;-47
2022/04/28 05:05:44;;;;;;;14.15;9.95;;;3.70;99.90;;;;;;5052604;28;20036;-47
2022/04/28 05:08:10;;;;;;;14.82;9.18;;;3.80;99.90;;;;;;5057267;28;20046;-47
2022/04/28 05:10:36;;;;;;;;;;;3.80;99.90;;;;;;5053342;28;20041;-47
2022/04/28 05:13:02;;;;;;;14.48;10.27;;;3.80;99.90;;;;;;5053569;28;19986;-47
2022/04/28 05:15:27;;;;;;;13.23;10.77;;;3.90;99.90;;;;;;5051604;28;20094;-48
2022/04/28 05:17:53;;;;;;;15.87;11.00;;;4.00;99.90;;;;;;5057546;28;20080;-47
2022/04/28 05:20:18;;;;;;;19.10;10.93;;;4.00;99.90;;;;;;5052897;28;20048;-47
2022/04/28 05:22:44;;;;;;;22.13;12.07;;;4.00;99.90;;;;;;5056960;28;20041;-47
2022/04/28 05:25:10;;;;;;;20.33;12.37;;;4.10;99.90;;;;;;5066059;28;20063;-47
2022/04/28 05:27:35;;;;;;;21.03;11.63;;;4.20;99.90;;;;;;5063331;28;20486;-47
2022/04/28 05:30:01;;;;;;;26.60;13.37;;;4.20;99.90;;;;;;5053346;28;20045;-47
2022/04/28 05:32:26;;;;;;;20.23;12.83;;;4.30;99.90;;;;;;5056812;28;20136;-47
2022/04/28 05:34:52;;;;;;;22.90;13.67;;;4.40;99.90;;;;;;5056979;28;20068;-46
2022/04/28 05:37:18;;;;;;;19.17;14.20;;;4.50;99.90;;;;;;5055188;28;20493;-47
2022/04/28 05:39:44;;;;;;;24.17;13.93;;;4.60;99.90;;;;;;5071518;28;20032;-48
2022/04/28 05:42:10;;;;;;;22.20;12.33;;;4.60;99.90;;;;;;5070927;28;20393;-47
2022/04/28 05:47:20;;;;;;;21.90;14.65;;;4.80;99.90;;;;;;5054535;28;20045;-48
2022/04/28 05:49:46;;;;;;;26.52;14.07;;;4.90;99.90;;;;;;5071250;28;20052;-47
2022/04/28 05:52:12;;;;;;;25.07;14.43;;;4.90;99.90;;;;;;5070530;28;20040;-47
2022/04/28 05:54:39;;;;;;;19.30;13.13;;;5.00;99.90;;;;;;5069184;28;20036;-47
2022/04/28 05:57:05;;;;;;;23.10;14.13;;;5.10;99.90;;;;;;5070966;28;20438;-48
2022/04/28 05:59:31;;;;;;;29.88;14.85;;;5.20;99.90;;;;;;5071839;28;20158;-51
2022/04/28 06:01:57;;;;;;;23.67;14.03;;;5.20;99.90;;;;;;5051913;28;20033;-47
2022/04/28 06:04:22;;;;;;;24.90;14.23;;;5.30;99.90;;;;;;5051836;28;20044;-47
2022/04/28 06:06:48;;;;;;;27.83;14.47;;;5.40;99.90;;;;;;5058577;28;20033;-49
2022/04/28 06:09:14;;;;;;;28.35;14.57;;;5.50;99.90;;;;;;5050873;28;20287;-47
2022/04/28 06:11:39;;;;;;;19.70;13.27;;;5.60;99.90;;;;;;5054241;28;20037;-47
2022/04/28 06:14:05;;;;;;;23.30;14.67;;;5.70;99.90;;;;;;5051812;28;20040;-48
2022/04/28 06:16:30;;;;;;;23.83;13.40;;;5.80;99.90;;;;;;5050490;28;20069;-48
2022/04/28 06:18:56;;;;;;;22.40;14.87;;;5.80;99.90;;;;;;5083597;28;20048;-47
2022/04/28 06:21:21;;;;;;;25.30;12.33;;;5.90;99.90;;;;;;5052551;28;20099;-47
2022/04/28 06:23:47;;;;;;;23.70;13.53;;;6.00;99.90;;;;;;5051589;28;20514;-47
2022/04/28 06:26:13;;;;;;;25.30;14.17;;;6.10;99.90;;;;;;5054210;28;20040;-47
2022/04/28 06:28:39;;;;;;;21.08;12.98;;;6.20;99.90;;;;;;5060441;28;20040;-48
2022/04/28 06:31:06;;;;;;;23.90;14.30;;;6.30;99.90;;;;;;5070300;28;20132;-48
2022/04/28 06:33:32;;;;;;;25.55;13.95;;;6.30;99.90;;;;;;5065414;28;20041;-47
2022/04/28 06:35:58;;;;;;;20.10;13.77;;;6.40;99.90;;;;;;5057724;28;20059;-47
2022/04/28 06:38:24;;;;;;;18.63;13.07;;;6.50;99.90;;;;;;5049720;28;20033;-47
2022/04/28 06:40:49;;;;;;;24.67;14.37;;;6.60;99.90;;;;;;5054165;28;20402;-47
2022/04/28 06:43:17;;;;;;;19.60;12.27;;;6.60;99.90;;;;;;5050834;28;20634;-48
2022/04/28 06:46:11;;;;;;;20.77;12.02;;;6.70;99.90;;;;;;5064207;28;20460;-47
2022/04/28 06:48:28;;;;;;;25.98;12.45;;;6.80;99.90;;;;;;5063345;28;20038;-47
2022/04/28 06:50:53;;;;;;;19.63;11.63;;;6.90;99.90;;;;;;5064322;28;20594;-48
2022/04/28 06:53:19;;;;;;;20.67;10.70;;;7.00;99.90;;;;;;5051276;28;20064;-47
2022/04/28 06:55:44;;;;;;;17.70;10.47;;;7.00;99.90;;;;;;5052024;28;20040;-48
2022/04/28 06:58:10;;;;;;;17.40;10.57;;;7.10;99.90;;;;;;5051016;28;20029;-48
2022/04/28 07:00:36;;;;;;;19.70;10.63;;;7.10;99.90;;;;;;5050863;28;20037;-47
2022/04/28 07:03:01;;;;;;;20.67;11.13;;;7.20;99.90;;;;;;5052321;28;20098;-47
2022/04/28 07:05:27;;;;;;;22.30;12.30;;;7.20;99.90;;;;;;5050535;28;20071;-49
2022/04/28 07:07:52;;;;;;;19.53;11.50;;;7.30;99.90;;;;;;5063753;28;20041;-47
2022/04/28 07:10:18;;;;;;;13.97;9.67;;;7.30;99.90;;;;;;5071319;28;20048;-47
2022/04/28 07:12:43;;;;;;;14.03;10.43;;;7.40;99.90;;;;;;5059769;28;20036;-48
2022/04/28 07:15:09;;;;;;;22.47;11.23;;;7.40;99.90;;;;;;5049045;28;20279;-48
2022/04/28 07:17:35;;;;;;;18.83;9.32;;;7.50;99.90;;;;;;5063443;28;20047;-47
2022/04/28 07:20:00;;;;;;;21.77;8.73;;;7.60;99.90;;;;;;5058453;28;20068;-47
2022/04/28 07:22:26;;;;;;;18.17;9.27;;;7.60;99.90;;;;;;5044961;28;20068;-47
2022/04/28 07:24:51;;;;;;;22.60;9.50;;;7.70;99.90;;;;;;5048078;28;20033;-48
2022/04/28 07:27:17;;;;;;;14.20;9.07;;;7.70;99.90;;;;;;5052011;28;20473;-48
2022/04/28 07:29:43;;;;;;;12.70;6.90;;;7.80;99.90;;;;;;5050317;28;20052;-48
2022/04/28 07:32:08;;;;;;;31.03;6.80;;;7.90;99.90;;;;;;5049372;28;20132;-47
2022/04/28 07:34:35;;;;;;;15.10;7.33;;;8.00;99.90;;;;;;5053329;28;20076;-47
2022/04/28 07:37:00;;;;;;;11.82;7.20;;;8.10;99.90;;;;;;5049021;28;20073;-48
2022/04/28 07:39:27;;;;;;;14.85;7.82;;;8.20;99.90;;;;;;5049491;28;20502;-47
2022/04/28 07:41:53;;;;;;;18.13;8.67;;;8.30;99.70;;;;;;5048936;28;20044;-47
2022/04/28 07:44:18;;;;;;;14.33;7.10;;;8.30;99.90;;;;;;5050228;28;20494;-47
2022/04/28 07:46:44;;;;;;;68.53;12.67;;;8.40;99.70;;;;;;5048457;28;20037;-47
2022/04/28 07:49:09;;;;;;;41.93;10.07;;;8.50;99.90;;;;;;5048470;28;20045;-47
2022/04/28 07:51:35;;;;;;;16.90;6.23;;;8.50;99.90;;;;;;5049481;28;20319;-48
2022/04/28 07:54:05;;;;;;;15.67;7.70;;;8.60;99.60;;;;;;5050070;28;20040;-48
2022/04/28 07:56:31;;;;;;;17.90;5.82;;;8.60;99.10;;;;;;5047826;28;20035;-48
2022/04/28 07:58:56;;;;;;;11.73;4.57;;;8.70;99.00;;;;;;5050020;28;20067;-48
2022/04/28 08:01:22;;;;;;;14.60;4.83;;;8.80;98.10;;;;;;5049088;28;20490;-47
2022/04/28 08:03:49;;;;;;;14.10;5.70;;;8.80;97.90;;;;;;5050053;28;20107;-49
2022/04/28 08:06:14;;;;;;;15.52;5.10;;;8.90;98.00;;;;;;5048642;28;20041;-47
2022/04/28 08:08:41;;;;;;;12.13;4.80;;;9.00;97.90;;;;;;5049494;28;20044;-48
2022/04/28 08:11:08;;;;;;;9.50;3.78;;;9.10;97.50;;;;;;5049276;28;20520;-48
2022/04/28 08:13:34;;;;;;;;;;;9.20;97.40;;;;;;5049584;28;20044;-48
2022/04/28 08:16:01;;;;;;;7.82;3.38;;;9.30;97.10;;;;;;5049139;28;19916;-47
2022/04/28 08:18:29;;;;;;;9.90;4.18;;;9.30;96.90;;;;;;5049696;28;20056;-47
2022/04/28 08:20:54;;;;;;;10.95;4.93;;;9.40;96.40;;;;;;5049326;28;20108;-48
2022/04/28 08:23:20;;;;;;;12.70;3.87;;;9.50;96.30;;;;;;5049131;28;20440;-47
2022/04/28 08:25:46;;;;;;;12.52;4.22;;;9.60;96.50;;;;;;5048550;28;20406;-48
2022/04/28 08:28:11;;;;;;;10.18;4.40;;;9.70;96.00;;;;;;5049695;28;20486;-48
2022/04/28 08:30:37;;;;;;;15.50;4.30;;;9.80;95.80;;;;;;5049628;28;20048;-50
2022/04/28 08:33:04;;;;;;;9.17;4.00;;;10.00;95.30;;;;;;5049254;28;20029;-48
2022/04/28 08:35:29;;;;;;;7.75;4.53;;;10.00;95.20;;;;;;5048550;28;20441;-49
2022/04/28 08:37:56;;;;;;;8.57;3.80;;;10.10;94.90;;;;;;5047765;28;20098;-48
2022/04/28 08:40:21;;;;;;;9.15;4.13;;;10.20;95.00;;;;;;5049346;28;20091;-49
2022/04/28 08:42:48;;;;;;;11.10;4.30;;;10.30;94.40;;;;;;5048915;28;20029;-48
2022/04/28 08:45:18;;;;;;;11.05;4.05;;;10.30;94.40;;;;;;5048877;28;20033;-48
2022/04/28 08:47:47;;;;;;;13.25;4.38;;;10.40;94.30;;;;;;5049038;28;20080;-48
2022/04/28 08:50:13;;;;;;;6.20;4.05;;;10.40;94.50;;;;;;5049517;28;20045;-48
2022/04/28 08:52:40;;;;;;;12.40;4.20;;;10.50;93.70;;;;;;5048791;28;20072;-48
2022/04/28 08:55:06;;;;;;;9.65;4.15;;;10.50;94.00;;;;;;5048422;28;20476;-48
2022/04/28 08:57:34;;;;;;;10.10;4.07;;;10.60;94.10;;;;;;5049166;28;20045;-48
2022/04/28 09:00:00;;;;;;;20.20;4.88;;;10.60;93.60;;;;;;5049140;28;20045;-48
2022/04/28 09:02:29;;;;;;;6.65;3.78;;;10.60;93.20;;;;;;5029378;28;20048;-48
2022/04/28 09:05:03;;;;;;;15.70;4.70;;;10.60;93.30;;;;;;5041328;28;20117;-49
2022/04/28 09:07:42;;;;;;;8.75;4.57;;;10.60;93.20;;;;;;5049269;28;20045;-48
2022/04/28 09:10:27;;;;;;;8.90;4.40;;;10.60;93.50;;;;;;5049030;28;20044;-47
2022/04/28 09:15:49;;;;;;;11.90;4.43;;;10.80;93.50;;;;;;5044062;28;20059;-48
2022/04/28 09:18:15;;;;;;;8.77;3.92;;;10.90;93.60;;;;;;5052525;28;20039;-48
2022/04/28 09:20:42;;;;;;;7.22;3.47;;;10.90;93.50;;;;;;5052973;28;20028;-48
2022/04/28 09:23:09;;;;;;;6.13;3.75;;;11.00;93.60;;;;;;5051861;28;20033;-47
2022/04/28 09:25:34;;;;;;;;;;;11.10;93.70;;;;;;5052493;28;20044;-49
2022/04/28 09:28:02;;;;;;;14.88;4.63;;;11.20;93.50;;;;;;5051182;28;20007;-48
2022/04/28 09:30:55;;;;;;;14.13;4.63;;;11.20;93.70;;;;;;5052985;28;20134;-47
2022/04/28 09:33:23;;;;;;;9.05;4.45;;;11.20;93.40;;;;;;5052124;28;20132;-48
2022/04/28 09:35:50;;;;;;;13.98;4.10;;;11.30;92.90;;;;;;5050585;28;20064;-48
2022/04/28 09:38:17;;;;;;;6.63;3.47;;;11.30;93.40;;;;;;5052394;28;20037;-47
2022/04/28 09:43:30;;;;;;;10.73;3.97;;;11.40;93.50;;;;;;5052507;28;20041;-49
2022/04/28 09:45:57;;;;;;;17.00;4.57;;;11.40;93.40;;;;;;5051799;28;20466;-47
2022/04/28 09:48:24;;;;;;;15.25;4.63;;;11.50;93.20;;;;;;5052145;28;20064;-47
2022/04/28 09:50:50;;;;;;;10.10;3.47;;;11.60;92.80;;;;;;5052462;28;20044;-48
2022/04/28 09:53:19;;;;;;;14.18;3.42;;;11.60;92.60;;;;;;5050940;28;20056;-48
2022/04/28 09:55:45;;;;;;;11.45;3.80;;;11.70;93.00;;;;;;5051857;28;20045;-49
2022/04/28 09:58:12;;;;;;;16.38;3.50;;;11.80;92.80;;;;;;5052340;28;20055;-47
2022/04/28 10:00:38;;;;;;;9.93;2.90;;;11.90;92.90;;;;;;5051980;28;20455;-48
2022/04/28 10:03:03;;;;;;;11.40;3.67;;;11.90;92.60;;;;;;5052143;28;20125;-48
2022/04/28 10:05:29;;;;;;;11.68;2.50;;;12.00;91.80;;;;;;5051345;28;20469;-48
2022/04/28 10:07:55;;;;;;;6.63;2.42;;;12.00;92.00;;;;;;5051530;28;20049;-48
2022/04/28 10:10:21;;;;;;;5.72;2.15;;;12.10;91.90;;;;;;5052018;28;20060;-49
2022/04/28 10:12:48;;;;;;;4.80;2.45;;;12.10;91.40;;;;;;5052247;28;20045;-48
2022/04/28 10:15:15;;;;;;;17.15;2.40;;;12.10;92.00;;;;;;5051481;28;20054;-48
2022/04/28 10:17:53;;;;;;;6.78;2.03;;;12.20;91.80;;;;;;5051473;28;20041;-48
2022/04/28 10:20:38;;;;;;;7.75;2.47;;;12.20;91.40;;;;;;5051713;28;20053;-48
2022/04/28 10:23:07;;;;;;;15.77;2.25;;;12.30;90.80;;;;;;5051761;28;20116;-48
2022/04/28 10:34:11;;;;;;;10.88;1.67;;;12.70;90.90;;;;;;5051753;28;20041;-49
2022/04/28 10:37:13;;;;;;;5.40;1.77;;;12.90;90.50;;;;;;5050445;28;20041;-49
2022/04/28 10:39:41;;;;;;;4.85;2.03;;;13.00;90.20;;;;;;5051391;28;20048;-48
2022/04/28 10:42:23;;;;;;;7.53;2.05;;;13.30;90.80;;;;;;5051165;28;20538;-48
2022/04/28 10:44:54;;;;;;;8.00;2.60;;;13.40;88.90;;;;;;5051013;28;20324;-48
2022/04/28 10:47:41;;;;;;;6.00;1.55;;;13.50;89.70;;;;;;5050570;28;20453;-48
2022/04/28 10:50:31;;;;;;;5.70;1.58;;;13.60;88.20;;;;;;5030325;28;20125;-48
2022/04/28 10:53:01;;;;;;;8.55;1.95;;;13.80;87.70;;;;;;5040386;28;20072;-48
2022/04/28 10:55:41;;;;;;;10.05;2.08;;;13.80;85.40;;;;;;5050279;28;20040;-49
2022/04/28 10:58:27;;;;;;;8.45;2.72;;;13.90;86.60;;;;;;5048541;28;20074;-48
2022/04/28 11:00:58;;;;;;;10.98;1.67;;;13.90;88.30;;;;;;5051221;28;20037;-48
2022/04/28 11:03:43;;;;;;;5.53;1.40;;;14.10;87.90;;;;;;5050280;28;20045;-48
2022/04/28 11:06:13;;;;;;;6.95;1.33;;;14.10;87.80;;;;;;5049458;28;20099;-49
2022/04/28 11:08:45;;;;;;;7.25;1.55;;;14.10;87.50;;;;;;5050337;28;20048;-48
2022/04/28 11:11:12;;;;;;;10.70;1.73;;;14.10;87.50;;;;;;5050186;28;20120;-48
2022/04/28 11:13:40;;;;;;;9.52;1.58;;;14.10;87.80;;;;;;5050407;28;20037;-51
2022/04/28 11:16:08;;;;;;;6.43;1.75;;;14.10;87.50;;;;;;5048959;28;20037;-52
2022/04/28 11:18:34;;;;;;;7.88;2.72;;;14.10;87.30;;;;;;5049998;28;20041;-48
2022/04/28 11:21:01;;;;;;;3.80;2.35;;;14.10;87.40;;;;;;5049797;28;20029;-48
2022/04/28 11:23:32;;;;;;;8.63;1.50;;;14.10;86.90;;;;;;5050306;28;20045;-49
2022/04/28 11:25:58;;;;;;;5.72;1.83;;;14.10;86.90;;;;;;5049473;28;20433;-48
2022/04/28 11:28:25;;;;;;;5.43;2.47;;;14.10;87.10;;;;;;5049330;28;20045;-48
2022/04/28 11:30:51;;;;;;;7.32;2.30;;;14.10;87.40;;;;;;5049919;28;20056;-49
2022/04/28 11:33:19;;;;;;;7.37;3.30;;;14.20;86.20;;;;;;5041787;28;20033;-49
2022/04/28 11:35:46;;;;;;;6.45;1.83;;;14.30;87.30;;;;;;5049599;28;20288;-49
2022/04/28 11:38:12;;;;;;;7.25;2.90;;;14.40;87.20;;;;;;5047565;28;20051;-48
2022/04/28 11:40:39;;;;;;;13.10;2.05;;;14.60;87.00;;;;;;5049431;28;20090;-49
2022/04/28 11:43:05;;;;;;;7.68;1.55;;;14.60;86.10;;;;;;5048427;28;20051;-48
2022/04/28 11:45:32;;;;;;;7.75;2.10;;;14.60;85.70;;;;;;5048240;28;20421;-48
2022/04/28 11:48:03;;;;;;;6.00;1.88;;;14.60;85.70;;;;;;5047239;28;20043;-48
2022/04/28 11:50:32;;;;;;;7.68;1.92;;;14.70;85.70;;;;;;5047555;28;20043;-48
2022/04/28 11:52:59;;;;;;;9.02;2.75;;;14.70;85.40;;;;;;5046127;28;20047;-48
2022/04/28 11:55:27;;;;;;;7.30;2.28;;;14.70;84.50;;;;;;5047465;28;20493;-48
2022/04/28 11:57:54;;;;;;;8.38;2.67;;;14.70;83.90;;;;;;5047934;28;20045;-48
2022/04/28 12:00:20;;;;;;;9.27;2.13;;;14.70;84.20;;;;;;5047343;28;20072;-47
2022/04/28 12:02:46;;;;;;;6.90;2.42;;;14.80;84.30;;;;;;5048726;28;20080;-49
2022/04/28 12:05:22;;;;;;;8.23;2.83;;;14.80;83.30;;;;;;5047976;28;20071;-48
2022/04/28 12:07:52;;;;;;;5.40;2.20;;;14.80;83.90;;;;;;5048974;28;20041;-49
2022/04/28 12:15:59;;;;;;;8.63;4.35;;;14.90;83.10;;;;;;5047950;28;20048;-48
2022/04/28 12:21:18;;;;;;;10.50;2.95;;;15.00;83.70;;;;;;5048011;28;20049;-51
2022/04/28 12:23:46;;;;;;;5.55;2.10;;;15.00;81.90;;;;;;5047360;28;20029;-48
2022/04/28 12:26:13;;;;;;;5.65;2.88;;;15.00;82.10;;;;;;5047448;28;20037;-49
2022/04/28 12:28:42;;;;;;;9.55;3.28;;;15.00;80.40;;;;;;5045047;28;20631;-48
2022/04/28 12:31:09;;;;;;;10.80;2.88;;;15.00;82.10;;;;;;5048606;28;20086;-48
2022/04/28 12:33:37;;;;;;;9.07;2.17;;;15.10;83.90;;;;;;5047567;28;20040;-49
2022/04/28 12:36:04;;;;;;;14.18;3.58;;;15.20;82.60;;;;;;5048040;28;20045;-47
2022/04/28 12:38:34;;;;;;;11.98;3.13;;;15.30;82.80;;;;;;5048382;28;20044;-49
2022/04/28 12:41:15;;;;;;;6.75;2.55;;;15.30;82.00;;;;;;5047885;28;20045;-49
2022/04/28 12:43:43;;;;;;;5.80;2.10;;;15.30;81.00;;;;;;5043670;28;20064;-49
2022/04/28 12:46:09;;;;;;;9.13;2.30;;;15.30;82.20;;;;;;5047626;28;20033;-48
2022/04/28 12:48:39;;;;;;;5.68;2.50;;;15.40;81.50;;;;;;5047559;28;20486;-49
2022/04/28 12:51:13;;;;;;;6.53;2.25;;;15.40;80.50;;;;;;5049893;28;20052;-49
2022/04/28 12:53:41;;;;;;;8.43;2.20;;;15.40;80.60;;;;;;5048753;28;20513;-49
2022/04/28 12:56:12;;;;;;;11.63;2.50;;;15.40;80.20;;;;;;5052638;28;20041;-49
2022/04/28 12:58:46;;;;;;;9.88;3.25;;;15.40;80.40;;;;;;5052155;28;20052;-49
2022/04/28 13:01:14;;;;;;;12.73;2.60;;;15.50;80.30;;;;;;5052577;28;20071;-48
2022/04/28 13:03:41;;;;;;;9.60;3.30;;;15.50;80.10;;;;;;5051517;28;20037;-49
2022/04/28 13:06:08;;;;;;;15.32;3.20;;;15.50;79.70;;;;;;5052792;28;20037;-49
2022/04/28 13:08:34;;;;;;;5.68;2.38;;;15.50;82.00;;;;;;5052238;28;20086;-49
2022/04/28 13:11:01;;;;;;;11.18;2.97;;;15.60;80.50;;;;;;5053279;28;20033;-49
2022/04/28 13:13:27;;;;;;;12.50;2.83;;;15.60;80.30;;;;;;5052238;28;20686;-48
2022/04/28 13:15:53;;;;;;;;;;;15.60;80.20;;;;;;5053184;28;20049;-48
2022/04/28 13:18:18;;;;;;;14.10;3.22;;;15.60;79.60;;;;;;5052307;28;19920;-48
2022/04/28 13:20:44;;;;;;;11.52;3.28;;;15.70;81.40;;;;;;5052781;28;20041;-49
2022/04/28 13:23:11;;;;;;;4.77;2.40;;;15.70;80.40;;;;;;5051779;28;20426;-48
2022/04/28 13:25:36;;;;;;;14.18;3.17;;;15.80;78.90;;;;;;5052328;28;20267;-47
2022/04/28 13:28:02;;;;;;;6.80;2.38;;;15.80;78.70;;;;;;5052059;28;20516;-49